sensor_id;sensor_type;location;lat;lon;timestamp;temperature;humidity
148;DHT22;142;50.652;12.216;2022-08-19T09:27:06;21.40;75.50
148;DHT22;142;50.652;12.216;2022-08-19T09:32:03;21.50;75.50
148;DHT22;142;50.652;12.216;2022-08-19T09:34:33;21.50;75.30
148;DHT22;142;50.652;12.216;2022-08-19T09:37:01;21.50;75.30
148;DHT22;142;50.652;12.216;2022-08-19T09:39:28;21.40;74.60
148;DHT22;142;50.652;12.216;2022-08-19T09:41:56;21.20;74.20
148;DHT22;142;50.652;12.216;2022-08-19T09:44:24;21.10;74.70
148;DHT22;142;50.652;12.216;2022-08-19T09:46:52;21.10;75.00
148;DHT22;142;50.652;12.216;2022-08-19T09:49:19;21.20;75.30
148;DHT22;142;50.652;12.216;2022-08-19T09:51:49;21.10;75.30
148;DHT22;142;50.652;12.216;2022-08-19T09:54:17;21.20;75.80
148;DHT22;142;50.652;12.216;2022-08-19T09:56:45;21.30;75.90
148;DHT22;142;50.652;12.216;2022-08-19T09:59:13;21.20;75.10
148;DHT22;142;50.652;12.216;2022-08-19T10:01:42;21.20;75.00
148;DHT22;142;50.652;12.216;2022-08-19T10:04:09;21.10;74.70
148;DHT22;142;50.652;12.216;2022-08-19T10:06:38;21.10;74.70
148;DHT22;142;50.652;12.216;2022-08-19T10:09:08;21.10;74.70
148;DHT22;142;50.652;12.216;2022-08-19T10:14:06;21.20;74.90
148;DHT22;142;50.652;12.216;2022-08-19T10:16:36;21.20;74.70
148;DHT22;142;50.652;12.216;2022-08-19T10:19:06;21.20;74.80
148;DHT22;142;50.652;12.216;2022-08-19T10:21:35;21.10;74.70
148;DHT22;142;50.652;12.216;2022-08-19T10:24:04;21.20;75.10
148;DHT22;142;50.652;12.216;2022-08-19T10:26:34;21.10;75.10
148;DHT22;142;50.652;12.216;2022-08-19T10:29:01;21.10;75.60
148;DHT22;142;50.652;12.216;2022-08-19T10:31:32;21.20;76.20
148;DHT22;142;50.652;12.216;2022-08-19T10:34:00;21.20;76.10
148;DHT22;142;50.652;12.216;2022-08-19T10:36:30;21.20;76.30
148;DHT22;142;50.652;12.216;2022-08-19T10:39:00;21.10;76.20
148;DHT22;142;50.652;12.216;2022-08-19T10:41:29;21.10;76.50
148;DHT22;142;50.652;12.216;2022-08-19T10:43:59;21.00;76.50
148;DHT22;142;50.652;12.216;2022-08-19T10:46:27;20.90;76.70
148;DHT22;142;50.652;12.216;2022-08-19T10:48:58;20.90;77.10
148;DHT22;142;50.652;12.216;2022-08-19T10:51:26;20.80;76.90
148;DHT22;142;50.652;12.216;2022-08-19T10:54:17;20.70;77.10
148;DHT22;142;50.652;12.216;2022-08-19T10:56:44;20.60;77.40
148;DHT22;142;50.652;12.216;2022-08-19T10:59:23;20.50;77.30
148;DHT22;142;50.652;12.216;2022-08-19T11:01:58;20.40;77.50
148;DHT22;142;50.652;12.216;2022-08-19T11:04:26;20.20;77.50
148;DHT22;142;50.652;12.216;2022-08-19T11:06:53;20.10;77.60
148;DHT22;142;50.652;12.216;2022-08-19T11:09:23;20.00;77.70
148;DHT22;142;50.652;12.216;2022-08-19T11:11:51;20.00;78.00
148;DHT22;142;50.652;12.216;2022-08-19T11:14:20;19.90;78.00
148;DHT22;142;50.652;12.216;2022-08-19T11:16:48;19.90;78.10
148;DHT22;142;50.652;12.216;2022-08-19T11:19:16;19.90;78.20
148;DHT22;142;50.652;12.216;2022-08-19T11:21:46;20.00;78.20
148;DHT22;142;50.652;12.216;2022-08-19T11:24:17;20.20;78.40
148;DHT22;142;50.652;12.216;2022-08-19T11:26:48;20.20;77.70
148;DHT22;142;50.652;12.216;2022-08-19T11:29:17;20.20;76.90
148;DHT22;142;50.652;12.216;2022-08-19T11:31:47;20.40;76.90
148;DHT22;142;50.652;12.216;2022-08-19T11:34:17;20.40;76.00
148;DHT22;142;50.652;12.216;2022-08-19T11:36:46;20.40;75.50
148;DHT22;142;50.652;12.216;2022-08-19T11:39:16;20.50;75.10
148;DHT22;142;50.652;12.216;2022-08-19T11:41:43;20.60;74.70
148;DHT22;142;50.652;12.216;2022-08-19T11:44:12;20.70;74.60
148;DHT22;142;50.652;12.216;2022-08-19T11:46:41;20.80;73.70
148;DHT22;142;50.652;12.216;2022-08-19T11:49:12;20.90;73.10
148;DHT22;142;50.652;12.216;2022-08-19T11:51:40;20.90;72.60
148;DHT22;142;50.652;12.216;2022-08-19T11:54:09;21.00;72.10
148;DHT22;142;50.652;12.216;2022-08-19T11:56:38;21.00;72.20
148;DHT22;142;50.652;12.216;2022-08-19T11:59:05;21.00;72.10
148;DHT22;142;50.652;12.216;2022-08-19T12:01:34;21.10;72.40
148;DHT22;142;50.652;12.216;2022-08-19T12:04:02;21.20;71.90
148;DHT22;142;50.652;12.216;2022-08-19T12:06:31;21.30;71.60
148;DHT22;142;50.652;12.216;2022-08-19T12:09:02;21.30;71.10
148;DHT22;142;50.652;12.216;2022-08-19T12:11:30;21.30;70.50
148;DHT22;142;50.652;12.216;2022-08-19T12:13:57;21.20;70.60
148;DHT22;142;50.652;12.216;2022-08-19T12:16:26;21.30;71.00
148;DHT22;142;50.652;12.216;2022-08-19T12:18:56;21.30;69.70
148;DHT22;142;50.652;12.216;2022-08-19T12:21:26;21.20;69.30
148;DHT22;142;50.652;12.216;2022-08-19T12:23:55;21.20;69.30
148;DHT22;142;50.652;12.216;2022-08-19T12:26:23;21.20;70.00
148;DHT22;142;50.652;12.216;2022-08-19T12:28:51;21.20;70.00
148;DHT22;142;50.652;12.216;2022-08-19T12:31:19;21.20;70.20
148;DHT22;142;50.652;12.216;2022-08-19T12:33:46;21.10;69.90
148;DHT22;142;50.652;12.216;2022-08-19T12:36:16;21.10;70.10
148;DHT22;142;50.652;12.216;2022-08-19T12:38:43;21.20;70.80
148;DHT22;142;50.652;12.216;2022-08-19T12:41:15;21.20;70.30
148;DHT22;142;50.652;12.216;2022-08-19T12:43:44;21.20;70.50
148;DHT22;142;50.652;12.216;2022-08-19T12:46:12;21.20;70.80
148;DHT22;142;50.652;12.216;2022-08-19T12:48:39;21.20;70.30
148;DHT22;142;50.652;12.216;2022-08-19T12:51:11;21.10;68.90
148;DHT22;142;50.652;12.216;2022-08-19T12:53:40;21.20;69.40
148;DHT22;142;50.652;12.216;2022-08-19T12:56:09;21.20;69.10
148;DHT22;142;50.652;12.216;2022-08-19T12:58:36;21.20;69.20
148;DHT22;142;50.652;12.216;2022-08-19T13:01:07;21.10;68.70
148;DHT22;142;50.652;12.216;2022-08-19T13:03:36;21.10;68.80
148;DHT22;142;50.652;12.216;2022-08-19T13:06:03;21.10;68.90
148;DHT22;142;50.652;12.216;2022-08-19T13:08:30;21.20;68.80
148;DHT22;142;50.652;12.216;2022-08-19T13:11:07;21.20;68.80
148;DHT22;142;50.652;12.216;2022-08-19T13:13:37;21.20;68.80
148;DHT22;142;50.652;12.216;2022-08-19T13:16:07;21.20;69.00
148;DHT22;142;50.652;12.216;2022-08-19T13:18:35;21.20;68.90
148;DHT22;142;50.652;12.216;2022-08-19T13:21:03;21.20;68.50
148;DHT22;142;50.652;12.216;2022-08-19T13:23:30;21.10;68.20
148;DHT22;142;50.652;12.216;2022-08-19T13:26:00;21.10;68.10
148;DHT22;142;50.652;12.216;2022-08-19T13:28:28;21.00;68.10
148;DHT22;142;50.652;12.216;2022-08-19T13:31:16;21.10;68.50
148;DHT22;142;50.652;12.216;2022-08-19T13:34:01;21.20;68.50
148;DHT22;142;50.652;12.216;2022-08-19T13:36:28;21.30;68.20
148;DHT22;142;50.652;12.216;2022-08-19T13:38:56;21.30;67.90
148;DHT22;142;50.652;12.216;2022-08-19T13:41:25;21.40;67.90
148;DHT22;142;50.652;12.216;2022-08-19T13:43:52;21.40;67.90
148;DHT22;142;50.652;12.216;2022-08-19T13:46:20;21.50;67.90
148;DHT22;142;50.652;12.216;2022-08-19T13:48:48;21.50;67.70
148;DHT22;142;50.652;12.216;2022-08-19T13:51:15;21.50;67.50
148;DHT22;142;50.652;12.216;2022-08-19T13:53:43;21.50;67.40
148;DHT22;142;50.652;12.216;2022-08-19T13:56:12;21.60;67.20
148;DHT22;142;50.652;12.216;2022-08-19T13:58:42;21.60;67.20
148;DHT22;142;50.652;12.216;2022-08-19T14:01:10;21.60;67.30
148;DHT22;142;50.652;12.216;2022-08-19T14:03:37;21.60;67.30
148;DHT22;142;50.652;12.216;2022-08-19T14:06:05;21.50;67.40
148;DHT22;142;50.652;12.216;2022-08-19T14:08:32;21.50;67.80
148;DHT22;142;50.652;12.216;2022-08-19T14:11:00;21.50;67.60
148;DHT22;142;50.652;12.216;2022-08-19T14:13:27;21.50;67.90
148;DHT22;142;50.652;12.216;2022-08-19T14:15:55;21.50;68.20
148;DHT22;142;50.652;12.216;2022-08-19T14:18:23;21.40;68.40
148;DHT22;142;50.652;12.216;2022-08-19T14:20:50;21.40;68.90
148;DHT22;142;50.652;12.216;2022-08-19T14:23:18;21.40;69.20
148;DHT22;142;50.652;12.216;2022-08-19T14:25:45;21.40;69.60
148;DHT22;142;50.652;12.216;2022-08-19T14:28:13;21.30;69.90
148;DHT22;142;50.652;12.216;2022-08-19T14:30:40;21.20;70.50
148;DHT22;142;50.652;12.216;2022-08-19T14:33:08;21.10;70.50
148;DHT22;142;50.652;12.216;2022-08-19T14:35:36;21.10;70.80
148;DHT22;142;50.652;12.216;2022-08-19T14:38:05;21.10;71.00
148;DHT22;142;50.652;12.216;2022-08-19T14:40:33;21.20;70.80
148;DHT22;142;50.652;12.216;2022-08-19T14:43:02;21.30;71.00
148;DHT22;142;50.652;12.216;2022-08-19T14:45:32;21.40;70.50
148;DHT22;142;50.652;12.216;2022-08-19T14:47:59;21.30;70.00
148;DHT22;142;50.652;12.216;2022-08-19T14:50:28;21.20;69.70
148;DHT22;142;50.652;12.216;2022-08-19T14:52:59;21.20;70.40
148;DHT22;142;50.652;12.216;2022-08-19T14:55:28;21.30;70.90
148;DHT22;142;50.652;12.216;2022-08-19T14:57:55;21.40;71.10
148;DHT22;142;50.652;12.216;2022-08-19T15:00:22;21.40;70.80
148;DHT22;142;50.652;12.216;2022-08-19T15:02:50;21.40;70.60
148;DHT22;142;50.652;12.216;2022-08-19T15:05:18;21.50;70.60
148;DHT22;142;50.652;12.216;2022-08-19T15:07:47;21.50;69.90
148;DHT22;142;50.652;12.216;2022-08-19T15:10:16;21.50;69.70
148;DHT22;142;50.652;12.216;2022-08-19T15:12:43;21.50;69.90
148;DHT22;142;50.652;12.216;2022-08-19T15:15:12;21.50;69.90
148;DHT22;142;50.652;12.216;2022-08-19T15:17:39;21.50;70.00
148;DHT22;142;50.652;12.216;2022-08-19T15:20:08;21.60;70.20
148;DHT22;142;50.652;12.216;2022-08-19T15:22:35;21.70;70.30
148;DHT22;142;50.652;12.216;2022-08-19T15:25:07;21.60;69.70
148;DHT22;142;50.652;12.216;2022-08-19T15:27:35;21.70;69.60
148;DHT22;142;50.652;12.216;2022-08-19T15:30:03;21.60;69.40
148;DHT22;142;50.652;12.216;2022-08-19T15:32:30;21.60;69.80
148;DHT22;142;50.652;12.216;2022-08-19T15:34:57;21.60;69.20
148;DHT22;142;50.652;12.216;2022-08-19T15:37:24;21.60;68.40
148;DHT22;142;50.652;12.216;2022-08-19T15:39:51;21.70;68.20
148;DHT22;142;50.652;12.216;2022-08-19T15:42:21;21.70;68.00
148;DHT22;142;50.652;12.216;2022-08-19T15:44:48;21.80;67.60
148;DHT22;142;50.652;12.216;2022-08-19T15:47:17;21.70;66.90
148;DHT22;142;50.652;12.216;2022-08-19T15:49:45;21.70;67.00
148;DHT22;142;50.652;12.216;2022-08-19T15:52:12;21.80;67.60
148;DHT22;142;50.652;12.216;2022-08-19T15:54:39;22.00;67.50
148;DHT22;142;50.652;12.216;2022-08-19T15:57:06;22.00;67.30
148;DHT22;142;50.652;12.216;2022-08-19T15:59:51;21.90;67.30
148;DHT22;142;50.652;12.216;2022-08-19T16:02:36;21.80;68.10
148;DHT22;142;50.652;12.216;2022-08-19T16:05:24;21.90;68.20
148;DHT22;142;50.652;12.216;2022-08-19T16:08:23;21.90;68.30
148;DHT22;142;50.652;12.216;2022-08-19T16:10:50;21.80;68.10
148;DHT22;142;50.652;12.216;2022-08-19T16:13:17;21.80;68.40
148;DHT22;142;50.652;12.216;2022-08-19T16:15:46;21.90;68.60
148;DHT22;142;50.652;12.216;2022-08-19T16:18:13;21.90;68.30
148;DHT22;142;50.652;12.216;2022-08-19T16:20:40;21.80;68.50
148;DHT22;142;50.652;12.216;2022-08-19T16:23:08;21.80;68.60
148;DHT22;142;50.652;12.216;2022-08-19T16:25:35;21.80;68.40
148;DHT22;142;50.652;12.216;2022-08-19T16:28:03;21.80;67.90
148;DHT22;142;50.652;12.216;2022-08-19T16:30:31;21.80;67.90
148;DHT22;142;50.652;12.216;2022-08-19T16:32:59;21.80;68.10
148;DHT22;142;50.652;12.216;2022-08-19T16:35:26;21.80;68.10
148;DHT22;142;50.652;12.216;2022-08-19T16:37:53;21.80;68.00
148;DHT22;142;50.652;12.216;2022-08-19T16:40:20;21.70;68.00
148;DHT22;142;50.652;12.216;2022-08-19T16:42:48;21.70;68.40
148;DHT22;142;50.652;12.216;2022-08-19T16:45:16;21.70;68.50
148;DHT22;142;50.652;12.216;2022-08-19T16:47:46;21.70;68.90
148;DHT22;142;50.652;12.216;2022-08-19T16:50:14;21.70;68.90
148;DHT22;142;50.652;12.216;2022-08-19T16:52:43;21.60;69.10
148;DHT22;142;50.652;12.216;2022-08-19T16:55:12;21.60;69.40
148;DHT22;142;50.652;12.216;2022-08-19T16:57:40;21.60;69.40
148;DHT22;142;50.652;12.216;2022-08-19T17:00:08;21.60;69.80
148;DHT22;142;50.652;12.216;2022-08-19T17:02:37;21.50;70.10
148;DHT22;142;50.652;12.216;2022-08-19T17:05:06;21.40;70.70
148;DHT22;142;50.652;12.216;2022-08-19T17:07:37;21.40;71.10
148;DHT22;142;50.652;12.216;2022-08-19T17:10:05;21.30;71.20
148;DHT22;142;50.652;12.216;2022-08-19T17:12:33;21.30;70.80
148;DHT22;142;50.652;12.216;2022-08-19T17:15:04;21.30;70.40
148;DHT22;142;50.652;12.216;2022-08-19T17:17:33;21.20;70.30
148;DHT22;142;50.652;12.216;2022-08-19T17:20:02;21.20;70.30
148;DHT22;142;50.652;12.216;2022-08-19T17:22:30;21.30;70.40
148;DHT22;142;50.652;12.216;2022-08-19T17:25:01;21.30;69.90
148;DHT22;142;50.652;12.216;2022-08-19T17:27:29;21.40;70.10
148;DHT22;142;50.652;12.216;2022-08-19T17:29:56;21.30;70.00
148;DHT22;142;50.652;12.216;2022-08-19T17:32:25;21.30;69.80
148;DHT22;142;50.652;12.216;2022-08-19T17:34:53;21.30;69.40
148;DHT22;142;50.652;12.216;2022-08-19T17:37:20;21.40;69.40
148;DHT22;142;50.652;12.216;2022-08-19T17:39:47;21.40;69.00
148;DHT22;142;50.652;12.216;2022-08-19T17:42:16;21.40;69.00
148;DHT22;142;50.652;12.216;2022-08-19T17:44:43;21.30;69.30
148;DHT22;142;50.652;12.216;2022-08-19T17:47:10;21.30;69.40
148;DHT22;142;50.652;12.216;2022-08-19T17:49:39;21.30;69.70
148;DHT22;142;50.652;12.216;2022-08-19T17:52:07;21.30;70.10
148;DHT22;142;50.652;12.216;2022-08-19T17:54:35;21.20;70.30
148;DHT22;142;50.652;12.216;2022-08-19T17:57:04;21.20;70.60
148;DHT22;142;50.652;12.216;2022-08-19T17:59:36;21.20;70.80
148;DHT22;142;50.652;12.216;2022-08-19T18:02:04;21.10;71.00
148;DHT22;142;50.652;12.216;2022-08-19T18:04:32;21.10;71.30
148;DHT22;142;50.652;12.216;2022-08-19T18:06:59;21.10;71.40
148;DHT22;142;50.652;12.216;2022-08-19T18:09:31;21.00;71.30
148;DHT22;142;50.652;12.216;2022-08-19T18:11:59;21.00;71.20
148;DHT22;142;50.652;12.216;2022-08-19T18:14:30;21.00;71.10
148;DHT22;142;50.652;12.216;2022-08-19T18:17:03;21.00;71.20
148;DHT22;142;50.652;12.216;2022-08-19T18:19:34;20.90;71.20
148;DHT22;142;50.652;12.216;2022-08-19T18:22:02;20.90;71.50
148;DHT22;142;50.652;12.216;2022-08-19T18:24:29;20.90;71.60
148;DHT22;142;50.652;12.216;2022-08-19T18:26:57;20.90;71.60
148;DHT22;142;50.652;12.216;2022-08-19T18:29:24;20.90;71.40
148;DHT22;142;50.652;12.216;2022-08-19T18:31:51;20.90;71.00
148;DHT22;142;50.652;12.216;2022-08-19T18:34:22;20.90;71.10
148;DHT22;142;50.652;12.216;2022-08-19T18:36:49;20.90;70.90
148;DHT22;142;50.652;12.216;2022-08-19T18:39:16;20.90;70.80
148;DHT22;142;50.652;12.216;2022-08-19T18:42:00;20.90;70.30
148;DHT22;142;50.652;12.216;2022-08-19T18:44:45;20.90;70.10
148;DHT22;142;50.652;12.216;2022-08-19T18:47:29;20.90;70.20
148;DHT22;142;50.652;12.216;2022-08-19T18:50:26;20.90;70.20
148;DHT22;142;50.652;12.216;2022-08-19T18:52:53;20.90;70.10
148;DHT22;142;50.652;12.216;2022-08-19T18:55:21;20.90;70.50
148;DHT22;142;50.652;12.216;2022-08-19T18:57:48;20.80;70.60
148;DHT22;142;50.652;12.216;2022-08-19T19:00:18;20.80;71.10
148;DHT22;142;50.652;12.216;2022-08-19T19:02:45;20.70;71.50
148;DHT22;142;50.652;12.216;2022-08-19T19:05:14;20.70;71.80
148;DHT22;142;50.652;12.216;2022-08-19T19:07:42;20.70;72.00
148;DHT22;142;50.652;12.216;2022-08-19T19:10:09;20.60;72.10
148;DHT22;142;50.652;12.216;2022-08-19T19:12:42;20.70;72.30
148;DHT22;142;50.652;12.216;2022-08-19T19:15:11;20.70;72.30
148;DHT22;142;50.652;12.216;2022-08-19T19:17:38;20.70;72.20
148;DHT22;142;50.652;12.216;2022-08-19T19:20:07;20.70;72.20
148;DHT22;142;50.652;12.216;2022-08-19T19:22:34;20.70;72.10
148;DHT22;142;50.652;12.216;2022-08-19T19:25:04;20.70;72.40
148;DHT22;142;50.652;12.216;2022-08-19T19:27:32;20.70;72.50
148;DHT22;142;50.652;12.216;2022-08-19T19:29:59;20.70;72.50
148;DHT22;142;50.652;12.216;2022-08-19T19:32:29;20.70;72.60
148;DHT22;142;50.652;12.216;2022-08-19T19:35:00;20.70;72.80
148;DHT22;142;50.652;12.216;2022-08-19T19:37:27;20.70;73.00
148;DHT22;142;50.652;12.216;2022-08-19T19:39:55;20.70;73.00
148;DHT22;142;50.652;12.216;2022-08-19T19:42:23;20.60;73.00
148;DHT22;142;50.652;12.216;2022-08-19T19:44:52;20.60;73.30
148;DHT22;142;50.652;12.216;2022-08-19T19:47:20;20.50;73.60
148;DHT22;142;50.652;12.216;2022-08-19T19:49:49;20.60;73.80
148;DHT22;142;50.652;12.216;2022-08-19T19:52:17;20.50;73.70
148;DHT22;142;50.652;12.216;2022-08-19T19:54:44;20.60;74.00
148;DHT22;142;50.652;12.216;2022-08-19T19:57:11;20.60;74.20
148;DHT22;142;50.652;12.216;2022-08-19T19:59:41;20.60;74.10
148;DHT22;142;50.652;12.216;2022-08-19T20:02:10;20.50;74.10
148;DHT22;142;50.652;12.216;2022-08-19T20:04:38;20.50;74.40
148;DHT22;142;50.652;12.216;2022-08-19T20:07:07;20.40;74.40
148;DHT22;142;50.652;12.216;2022-08-19T20:09:34;20.40;74.50
148;DHT22;142;50.652;12.216;2022-08-19T20:12:00;20.30;74.60
148;DHT22;142;50.652;12.216;2022-08-19T20:14:30;20.30;75.00
148;DHT22;142;50.652;12.216;2022-08-19T20:16:59;20.30;75.20
148;DHT22;142;50.652;12.216;2022-08-19T20:19:28;20.30;75.30
148;DHT22;142;50.652;12.216;2022-08-19T20:22:02;20.20;75.30
148;DHT22;142;50.652;12.216;2022-08-19T20:24:31;20.10;75.20
148;DHT22;142;50.652;12.216;2022-08-19T20:27:00;20.10;75.60
148;DHT22;142;50.652;12.216;2022-08-19T20:29:28;20.20;75.90
148;DHT22;142;50.652;12.216;2022-08-19T20:31:56;20.10;75.80
148;DHT22;142;50.652;12.216;2022-08-19T20:34:25;20.00;75.90
148;DHT22;142;50.652;12.216;2022-08-19T20:36:52;20.00;76.10
148;DHT22;142;50.652;12.216;2022-08-19T20:39:20;19.90;76.30
148;DHT22;142;50.652;12.216;2022-08-19T20:41:47;19.90;76.50
148;DHT22;142;50.652;12.216;2022-08-19T20:44:14;20.00;76.90
148;DHT22;142;50.652;12.216;2022-08-19T20:46:41;20.00;76.80
148;DHT22;142;50.652;12.216;2022-08-19T20:49:08;20.00;76.90
148;DHT22;142;50.652;12.216;2022-08-19T20:51:37;20.00;77.00
148;DHT22;142;50.652;12.216;2022-08-19T20:54:04;20.10;77.00
148;DHT22;142;50.652;12.216;2022-08-19T20:56:31;20.10;76.90
148;DHT22;142;50.652;12.216;2022-08-19T20:58:59;20.10;76.70
148;DHT22;142;50.652;12.216;2022-08-19T21:01:29;20.10;76.50
148;DHT22;142;50.652;12.216;2022-08-19T21:03:56;20.10;76.40
148;DHT22;142;50.652;12.216;2022-08-19T21:06:23;20.10;76.50
148;DHT22;142;50.652;12.216;2022-08-19T21:08:52;20.10;76.40
148;DHT22;142;50.652;12.216;2022-08-19T21:11:19;20.00;76.50
148;DHT22;142;50.652;12.216;2022-08-19T21:13:47;20.00;76.10
148;DHT22;142;50.652;12.216;2022-08-19T21:16:14;19.90;75.90
148;DHT22;142;50.652;12.216;2022-08-19T21:18:41;19.90;76.10
148;DHT22;142;50.652;12.216;2022-08-19T21:21:09;19.80;76.20
148;DHT22;142;50.652;12.216;2022-08-19T21:23:36;19.80;76.40
148;DHT22;142;50.652;12.216;2022-08-19T21:26:05;19.90;76.50
148;DHT22;142;50.652;12.216;2022-08-19T21:28:34;19.80;75.90
148;DHT22;142;50.652;12.216;2022-08-19T21:31:01;19.80;76.00
148;DHT22;142;50.652;12.216;2022-08-19T21:33:28;19.70;75.80
148;DHT22;142;50.652;12.216;2022-08-19T21:35:56;19.70;75.90
148;DHT22;142;50.652;12.216;2022-08-19T21:38:24;19.70;75.80
148;DHT22;142;50.652;12.216;2022-08-19T21:40:52;19.70;75.40
148;DHT22;142;50.652;12.216;2022-08-19T21:43:21;19.70;75.30
148;DHT22;142;50.652;12.216;2022-08-19T21:45:49;19.60;75.10
148;DHT22;142;50.652;12.216;2022-08-19T21:48:17;19.50;74.80
148;DHT22;142;50.652;12.216;2022-08-19T21:50:44;19.50;74.90
148;DHT22;142;50.652;12.216;2022-08-19T21:53:12;19.50;74.60
148;DHT22;142;50.652;12.216;2022-08-19T21:55:41;19.50;74.60
148;DHT22;142;50.652;12.216;2022-08-19T21:58:08;19.40;74.40
148;DHT22;142;50.652;12.216;2022-08-19T22:00:38;19.40;74.50
148;DHT22;142;50.652;12.216;2022-08-19T22:03:05;19.40;74.50
148;DHT22;142;50.652;12.216;2022-08-19T22:05:33;19.40;74.10
148;DHT22;142;50.652;12.216;2022-08-19T22:08:01;19.30;73.70
148;DHT22;142;50.652;12.216;2022-08-19T22:10:32;19.40;73.90
148;DHT22;142;50.652;12.216;2022-08-19T22:12:59;19.30;73.70
148;DHT22;142;50.652;12.216;2022-08-19T22:15:26;19.30;73.60
148;DHT22;142;50.652;12.216;2022-08-19T22:17:56;19.40;73.70
148;DHT22;142;50.652;12.216;2022-08-19T22:20:26;19.40;73.50
148;DHT22;142;50.652;12.216;2022-08-19T22:22:57;19.50;73.30
148;DHT22;142;50.652;12.216;2022-08-19T22:25:29;19.60;73.10
148;DHT22;142;50.652;12.216;2022-08-19T22:27:57;19.60;73.10
148;DHT22;142;50.652;12.216;2022-08-19T22:30:25;19.50;73.00
148;DHT22;142;50.652;12.216;2022-08-19T22:32:54;19.60;72.90
148;DHT22;142;50.652;12.216;2022-08-19T22:35:28;19.50;72.50
148;DHT22;142;50.652;12.216;2022-08-19T22:37:56;19.50;72.50
148;DHT22;142;50.652;12.216;2022-08-19T22:40:24;19.50;72.20
148;DHT22;142;50.652;12.216;2022-08-19T22:42:56;19.40;72.20
148;DHT22;142;50.652;12.216;2022-08-19T22:45:25;19.40;72.40
148;DHT22;142;50.652;12.216;2022-08-19T22:47:53;19.40;72.80
148;DHT22;142;50.652;12.216;2022-08-19T22:50:21;19.40;72.90
148;DHT22;142;50.652;12.216;2022-08-19T22:52:54;19.40;73.20
148;DHT22;142;50.652;12.216;2022-08-19T22:55:22;19.40;73.40
148;DHT22;142;50.652;12.216;2022-08-19T22:57:50;19.40;73.40
148;DHT22;142;50.652;12.216;2022-08-19T23:00:18;19.40;73.40
148;DHT22;142;50.652;12.216;2022-08-19T23:02:45;19.40;73.20
148;DHT22;142;50.652;12.216;2022-08-19T23:05:13;19.40;73.10
148;DHT22;142;50.652;12.216;2022-08-19T23:07:40;19.30;73.10
148;DHT22;142;50.652;12.216;2022-08-19T23:10:10;19.30;73.20
148;DHT22;142;50.652;12.216;2022-08-19T23:12:40;19.40;73.40
148;DHT22;142;50.652;12.216;2022-08-19T23:15:12;19.40;73.50
148;DHT22;142;50.652;12.216;2022-08-19T23:17:39;19.40;73.50
148;DHT22;142;50.652;12.216;2022-08-19T23:22:39;19.50;73.40
148;DHT22;142;50.652;12.216;2022-08-19T23:25:16;19.40;73.50
148;DHT22;142;50.652;12.216;2022-08-19T23:27:44;19.40;73.60
148;DHT22;142;50.652;12.216;2022-08-19T23:30:30;19.40;73.60
148;DHT22;142;50.652;12.216;2022-08-19T23:32:59;19.30;73.90
148;DHT22;142;50.652;12.216;2022-08-19T23:35:32;19.40;74.00
148;DHT22;142;50.652;12.216;2022-08-19T23:37:59;19.30;74.00
148;DHT22;142;50.652;12.216;2022-08-19T23:40:28;19.30;74.30
148;DHT22;142;50.652;12.216;2022-08-19T23:42:56;19.40;74.30
148;DHT22;142;50.652;12.216;2022-08-19T23:45:25;19.30;74.40
148;DHT22;142;50.652;12.216;2022-08-19T23:47:52;19.30;74.60
148;DHT22;142;50.652;12.216;2022-08-19T23:50:20;19.30;74.60
148;DHT22;142;50.652;12.216;2022-08-19T23:52:50;19.40;74.60
148;DHT22;142;50.652;12.216;2022-08-19T23:55:19;19.30;74.80
148;DHT22;142;50.652;12.216;2022-08-19T23:57:48;19.30;74.90
